sensor_id;sensor_type;location;lat;lon;timestamp;pressure;altitude;pressure_sealevel;temperature
72236;BMP280;60146;52.498;13.462;2024-03-23T00:55:05;96175.97;;;10.37
72236;BMP280;60146;52.498;13.462;2024-03-23T00:57:31;96138.25;;;10.41
72236;BMP280;60146;52.498;13.462;2024-03-23T00:59:56;96196.16;;;10.43
72236;BMP280;60146;52.498;13.462;2024-03-23T01:02:21;96248.09;;;10.41
72236;BMP280;60146;52.498;13.462;2024-03-23T01:04:47;96273.50;;;10.41
72236;BMP280;60146;52.498;13.462;2024-03-23T01:07:12;96230.16;;;10.40
72236;BMP280;60146;52.498;13.462;2024-03-23T01:09:37;96233.16;;;10.42
72236;BMP280;60146;52.498;13.462;2024-03-23T01:12:04;96226.00;;;10.46
72236;BMP280;60146;52.498;13.462;2024-03-23T01:14:29;96248.03;;;10.45
72236;BMP280;60146;52.498;13.462;2024-03-23T01:16:55;96235.38;;;10.43
72236;BMP280;60146;52.498;13.462;2024-03-23T01:19:20;96445.00;;;10.42
72236;BMP280;60146;52.498;13.462;2024-03-23T01:21:45;96417.38;;;10.34
72236;BMP280;60146;52.498;13.462;2024-03-23T01:24:11;96371.41;;;10.43
72236;BMP280;60146;52.498;13.462;2024-03-23T01:26:36;96393.81;;;10.37
72236;BMP280;60146;52.498;13.462;2024-03-23T01:29:02;96362.44;;;10.41
72236;BMP280;60146;52.498;13.462;2024-03-23T01:31:27;96292.94;;;10.40
72236;BMP280;60146;52.498;13.462;2024-03-23T01:33:53;96262.66;;;10.42
72236;BMP280;60146;52.498;13.462;2024-03-23T01:36:18;96320.53;;;10.48
72236;BMP280;60146;52.498;13.462;2024-03-23T01:38:43;96319.09;;;10.40
72236;BMP280;60146;52.498;13.462;2024-03-23T01:41:08;96331.78;;;10.38
72236;BMP280;60146;52.498;13.462;2024-03-23T01:43:34;96293.28;;;10.38
72236;BMP280;60146;52.498;13.462;2024-03-23T01:45:59;96272.06;;;10.33
72236;BMP280;60146;52.498;13.462;2024-03-23T01:48:25;96212.66;;;10.30
72236;BMP280;60146;52.498;13.462;2024-03-23T01:50:51;96177.56;;;10.28
72236;BMP280;60146;52.498;13.462;2024-03-23T01:53:16;96174.53;;;10.33
72236;BMP280;60146;52.498;13.462;2024-03-23T01:55:46;96195.84;;;10.31
72236;BMP280;60146;52.498;13.462;2024-03-23T01:58:12;96186.00;;;10.45
72236;BMP280;60146;52.498;13.462;2024-03-23T02:00:37;96262.94;;;10.55
72236;BMP280;60146;52.498;13.462;2024-03-23T02:03:21;96263.03;;;10.41
72236;BMP280;60146;52.498;13.462;2024-03-23T02:05:47;96198.72;;;10.47
72236;BMP280;60146;52.498;13.462;2024-03-23T02:08:12;96220.44;;;10.44
72236;BMP280;60146;52.498;13.462;2024-03-23T02:10:38;96223.75;;;10.51
72236;BMP280;60146;52.498;13.462;2024-03-23T02:13:03;96262.97;;;10.48
72236;BMP280;60146;52.498;13.462;2024-03-23T02:15:28;96238.31;;;10.45
72236;BMP280;60146;52.498;13.462;2024-03-23T02:17:54;96235.00;;;10.38
72236;BMP280;60146;52.498;13.462;2024-03-23T02:20:19;96215.59;;;10.39
72236;BMP280;60146;52.498;13.462;2024-03-23T02:22:44;96191.28;;;10.42
72236;BMP280;60146;52.498;13.462;2024-03-23T02:25:09;96242.81;;;10.52
72236;BMP280;60146;52.498;13.462;2024-03-23T02:27:35;96263.44;;;10.39
72236;BMP280;60146;52.498;13.462;2024-03-23T02:30:01;96234.69;;;10.33
72236;BMP280;60146;52.498;13.462;2024-03-23T02:32:26;96204.00;;;10.40
72236;BMP280;60146;52.498;13.462;2024-03-23T02:34:52;96251.13;;;10.33
72236;BMP280;60146;52.498;13.462;2024-03-23T02:37:17;96232.13;;;10.26
72236;BMP280;60146;52.498;13.462;2024-03-23T02:39:42;96199.63;;;10.27
72236;BMP280;60146;52.498;13.462;2024-03-23T02:42:07;96186.91;;;10.29
72236;BMP280;60146;52.498;13.462;2024-03-23T02:44:33;96165.22;;;10.32
72236;BMP280;60146;52.498;13.462;2024-03-23T02:46:58;96139.81;;;10.32
72236;BMP280;60146;52.498;13.462;2024-03-23T02:49:23;96099.00;;;10.38
72236;BMP280;60146;52.498;13.462;2024-03-23T02:51:49;96100.88;;;10.37
72236;BMP280;60146;52.498;13.462;2024-03-23T02:54:14;96126.28;;;10.40
72236;BMP280;60146;52.498;13.462;2024-03-23T02:56:40;96130.66;;;10.54
72236;BMP280;60146;52.498;13.462;2024-03-23T02:59:05;96249.44;;;10.63
72236;BMP280;60146;52.498;13.462;2024-03-23T03:01:30;96430.38;;;10.55
72236;BMP280;60146;52.498;13.462;2024-03-23T03:03:56;96351.19;;;10.51
72236;BMP280;60146;52.498;13.462;2024-03-23T03:06:27;96291.78;;;10.44
72236;BMP280;60146;52.498;13.462;2024-03-23T03:08:53;96233.47;;;10.51
72236;BMP280;60146;52.498;13.462;2024-03-23T03:11:19;96204.31;;;10.45
72236;BMP280;60146;52.498;13.462;2024-03-23T03:13:44;96157.25;;;10.45
72236;BMP280;60146;52.498;13.462;2024-03-23T03:16:10;96159.81;;;10.52
72236;BMP280;60146;52.498;13.462;2024-03-23T03:18:35;96220.75;;;10.46
72236;BMP280;60146;52.498;13.462;2024-03-23T03:21:01;96231.97;;;10.50
72236;BMP280;60146;52.498;13.462;2024-03-23T03:23:26;96245.91;;;10.33
72236;BMP280;60146;52.498;13.462;2024-03-23T03:25:52;96184.94;;;10.43
72236;BMP280;60146;52.498;13.462;2024-03-23T03:28:17;96149.09;;;10.40
72236;BMP280;60146;52.498;13.462;2024-03-23T03:30:42;96075.16;;;10.36
72236;BMP280;60146;52.498;13.462;2024-03-23T03:33:08;95998.94;;;10.34
72236;BMP280;60146;52.498;13.462;2024-03-23T03:35:33;95963.53;;;10.26
72236;BMP280;60146;52.498;13.462;2024-03-23T03:37:58;96019.06;;;10.37
72236;BMP280;60146;52.498;13.462;2024-03-23T03:40:23;96019.81;;;10.41
72236;BMP280;60146;52.498;13.462;2024-03-23T03:42:50;96026.53;;;10.42
72236;BMP280;60146;52.498;13.462;2024-03-23T03:45:15;96148.81;;;10.24
72236;BMP280;60146;52.498;13.462;2024-03-23T03:47:41;96124.25;;;10.15
72236;BMP280;60146;52.498;13.462;2024-03-23T03:50:06;96010.00;;;10.09
72236;BMP280;60146;52.498;13.462;2024-03-23T03:52:31;95919.31;;;10.06
72236;BMP280;60146;52.498;13.462;2024-03-23T03:55:01;95942.03;;;10.12
72236;BMP280;60146;52.498;13.462;2024-03-23T03:57:28;95957.66;;;10.15
72236;BMP280;60146;52.498;13.462;2024-03-23T03:59:53;96013.66;;;10.18
72236;BMP280;60146;52.498;13.462;2024-03-23T04:02:19;96055.22;;;10.06
72236;BMP280;60146;52.498;13.462;2024-03-23T04:04:44;95997.03;;;10.02
72236;BMP280;60146;52.498;13.462;2024-03-23T04:07:09;95980.28;;;9.96
72236;BMP280;60146;52.498;13.462;2024-03-23T04:09:35;95935.44;;;10.01
72236;BMP280;60146;52.498;13.462;2024-03-23T04:12:00;96042.25;;;9.95
72236;BMP280;60146;52.498;13.462;2024-03-23T04:14:26;96099.72;;;10.02
72236;BMP280;60146;52.498;13.462;2024-03-23T04:16:51;96188.97;;;9.91
72236;BMP280;60146;52.498;13.462;2024-03-23T04:19:16;96102.47;;;9.78
72236;BMP280;60146;52.498;13.462;2024-03-23T04:21:42;96103.97;;;9.76
72236;BMP280;60146;52.498;13.462;2024-03-23T04:24:07;96061.78;;;9.77
72236;BMP280;60146;52.498;13.462;2024-03-23T04:26:45;96151.72;;;9.83
72236;BMP280;60146;52.498;13.462;2024-03-23T04:29:11;96167.81;;;9.72
72236;BMP280;60146;52.498;13.462;2024-03-23T04:31:39;96099.22;;;9.64
72236;BMP280;60146;52.498;13.462;2024-03-23T04:34:04;96114.50;;;9.62
72236;BMP280;60146;52.498;13.462;2024-03-23T04:36:30;96164.13;;;9.62
72236;BMP280;60146;52.498;13.462;2024-03-23T04:38:57;96190.25;;;9.62
72236;BMP280;60146;52.498;13.462;2024-03-23T04:41:22;96245.47;;;9.68
72236;BMP280;60146;52.498;13.462;2024-03-23T04:43:48;96212.28;;;9.51
72236;BMP280;60146;52.498;13.462;2024-03-23T04:46:13;96095.91;;;9.50
72236;BMP280;60146;52.498;13.462;2024-03-23T04:48:39;96031.03;;;9.45
72236;BMP280;60146;52.498;13.462;2024-03-23T04:51:04;95930.69;;;9.46
72236;BMP280;60146;52.498;13.462;2024-03-23T04:53:29;95884.47;;;9.40
72236;BMP280;60146;52.498;13.462;2024-03-23T04:55:55;95890.47;;;9.33
72236;BMP280;60146;52.498;13.462;2024-03-23T04:58:22;95887.56;;;9.28
72236;BMP280;60146;52.498;13.462;2024-03-23T05:00:53;95922.25;;;9.29
72236;BMP280;60146;52.498;13.462;2024-03-23T05:03:18;95919.25;;;9.27
72236;BMP280;60146;52.498;13.462;2024-03-23T05:05:46;95928.28;;;9.19
72236;BMP280;60146;52.498;13.462;2024-03-23T05:08:11;95884.69;;;9.12
72236;BMP280;60146;52.498;13.462;2024-03-23T05:10:37;95854.13;;;9.13
72236;BMP280;60146;52.498;13.462;2024-03-23T05:13:03;95836.19;;;9.15
72236;BMP280;60146;52.498;13.462;2024-03-23T05:15:28;95814.16;;;9.16
72236;BMP280;60146;52.498;13.462;2024-03-23T05:17:55;95786.25;;;9.13
72236;BMP280;60146;52.498;13.462;2024-03-23T05:20:20;95770.94;;;9.15
72236;BMP280;60146;52.498;13.462;2024-03-23T05:22:45;95800.13;;;9.03
72236;BMP280;60146;52.498;13.462;2024-03-23T05:25:11;95788.25;;;8.99
72236;BMP280;60146;52.498;13.462;2024-03-23T05:27:37;95818.44;;;9.00
72236;BMP280;60146;52.498;13.462;2024-03-23T05:30:03;95886.34;;;8.86
72236;BMP280;60146;52.498;13.462;2024-03-23T05:32:29;95895.34;;;8.75
72236;BMP280;60146;52.498;13.462;2024-03-23T05:34:54;95840.84;;;8.91
72236;BMP280;60146;52.498;13.462;2024-03-23T05:37:24;95904.25;;;8.81
72236;BMP280;60146;52.498;13.462;2024-03-23T05:39:50;95898.72;;;8.72
72236;BMP280;60146;52.498;13.462;2024-03-23T05:42:19;95849.56;;;8.67
72236;BMP280;60146;52.498;13.462;2024-03-23T05:44:44;95761.25;;;8.69
72236;BMP280;60146;52.498;13.462;2024-03-23T05:47:10;95679.63;;;8.75
72236;BMP280;60146;52.498;13.462;2024-03-23T05:49:37;95636.75;;;8.80
72236;BMP280;60146;52.498;13.462;2024-03-23T05:52:02;95582.25;;;8.89
72236;BMP280;60146;52.498;13.462;2024-03-23T05:54:29;95580.69;;;8.94
72236;BMP280;60146;52.498;13.462;2024-03-23T05:56:55;95609.81;;;8.90
72236;BMP280;60146;52.498;13.462;2024-03-23T05:59:20;95584.13;;;8.88
72236;BMP280;60146;52.498;13.462;2024-03-23T06:01:47;95577.75;;;8.92
72236;BMP280;60146;52.498;13.462;2024-03-23T06:04:12;95604.97;;;8.91
72236;BMP280;60146;52.498;13.462;2024-03-23T06:06:39;95593.41;;;8.92
72236;BMP280;60146;52.498;13.462;2024-03-23T06:09:04;95575.78;;;9.00
72236;BMP280;60146;52.498;13.462;2024-03-23T06:11:30;95584.03;;;8.95
72236;BMP280;60146;52.498;13.462;2024-03-23T06:13:55;95581.41;;;8.98
72236;BMP280;60146;52.498;13.462;2024-03-23T06:16:21;95538.88;;;9.01
72236;BMP280;60146;52.498;13.462;2024-03-23T06:18:49;95498.97;;;9.04
72236;BMP280;60146;52.498;13.462;2024-03-23T06:21:15;95499.28;;;9.06
72236;BMP280;60146;52.498;13.462;2024-03-23T06:23:41;95502.97;;;9.12
72236;BMP280;60146;52.498;13.462;2024-03-23T06:26:06;95523.78;;;9.15
72236;BMP280;60146;52.498;13.462;2024-03-23T06:28:31;95521.53;;;9.17
72236;BMP280;60146;52.498;13.462;2024-03-23T06:30:57;95499.81;;;9.24
72236;BMP280;60146;52.498;13.462;2024-03-23T06:33:22;95506.41;;;9.32
72236;BMP280;60146;52.498;13.462;2024-03-23T06:35:52;95526.41;;;9.41
72236;BMP280;60146;52.498;13.462;2024-03-23T06:38:18;95569.25;;;9.47
72236;BMP280;60146;52.498;13.462;2024-03-23T06:40:43;95640.88;;;9.46
72236;BMP280;60146;52.498;13.462;2024-03-23T06:43:13;95731.88;;;9.44
72236;BMP280;60146;52.498;13.462;2024-03-23T06:45:38;95718.06;;;9.44
72236;BMP280;60146;52.498;13.462;2024-03-23T06:48:04;95686.66;;;9.54
72236;BMP280;60146;52.498;13.462;2024-03-23T06:50:33;95748.84;;;9.62
72236;BMP280;60146;52.498;13.462;2024-03-23T06:52:58;95807.44;;;9.61
72236;BMP280;60146;52.498;13.462;2024-03-23T06:55:24;95819.38;;;9.59
72236;BMP280;60146;52.498;13.462;2024-03-23T06:57:51;95852.94;;;9.64
72236;BMP280;60146;52.498;13.462;2024-03-23T07:00:17;95830.13;;;9.68
72236;BMP280;60146;52.498;13.462;2024-03-23T07:02:43;95814.72;;;9.76
72236;BMP280;60146;52.498;13.462;2024-03-23T07:05:09;95914.72;;;9.80
72236;BMP280;60146;52.498;13.462;2024-03-23T07:07:36;95993.50;;;9.75
72236;BMP280;60146;52.498;13.462;2024-03-23T07:10:01;96186.41;;;9.84
72236;BMP280;60146;52.498;13.462;2024-03-23T07:12:27;96223.78;;;9.77
72236;BMP280;60146;52.498;13.462;2024-03-23T07:14:52;96199.50;;;9.80
72236;BMP280;60146;52.498;13.462;2024-03-23T07:17:17;96141.63;;;9.85
72236;BMP280;60146;52.498;13.462;2024-03-23T07:19:43;96152.84;;;9.82
72236;BMP280;60146;52.498;13.462;2024-03-23T07:22:09;96123.00;;;9.76
72236;BMP280;60146;52.498;13.462;2024-03-23T07:24:35;96172.94;;;9.92
72236;BMP280;60146;52.498;13.462;2024-03-23T07:27:00;96280.44;;;9.91
72236;BMP280;60146;52.498;13.462;2024-03-23T07:29:27;96236.41;;;9.89
72236;BMP280;60146;52.498;13.462;2024-03-23T07:31:52;96223.31;;;9.96
72236;BMP280;60146;52.498;13.462;2024-03-23T07:34:18;96246.06;;;9.99
72236;BMP280;60146;52.498;13.462;2024-03-23T07:36:43;96296.41;;;10.16
72236;BMP280;60146;52.498;13.462;2024-03-23T07:39:09;96553.38;;;10.31
72236;BMP280;60146;52.498;13.462;2024-03-23T07:41:34;96640.81;;;10.23
72236;BMP280;60146;52.498;13.462;2024-03-23T07:44:00;96642.31;;;10.20
72236;BMP280;60146;52.498;13.462;2024-03-23T07:46:25;96706.94;;;10.27
72236;BMP280;60146;52.498;13.462;2024-03-23T07:48:51;96663.56;;;10.05
72236;BMP280;60146;52.498;13.462;2024-03-23T07:51:23;96594.09;;;10.18
72236;BMP280;60146;52.498;13.462;2024-03-23T07:53:49;96646.78;;;10.23
72236;BMP280;60146;52.498;13.462;2024-03-23T07:56:15;96642.66;;;10.22
72236;BMP280;60146;52.498;13.462;2024-03-23T07:58:41;96683.00;;;10.14
72236;BMP280;60146;52.498;13.462;2024-03-23T08:01:12;96679.59;;;10.00
72236;BMP280;60146;52.498;13.462;2024-03-23T08:03:39;96582.91;;;10.04
72236;BMP280;60146;52.498;13.462;2024-03-23T08:08:41;96695.66;;;9.92
72236;BMP280;60146;52.498;13.462;2024-03-23T08:11:07;96671.00;;;9.93
72236;BMP280;60146;52.498;13.462;2024-03-23T08:13:33;96580.66;;;9.89
72236;BMP280;60146;52.498;13.462;2024-03-23T08:16:00;96521.63;;;9.91
72236;BMP280;60146;52.498;13.462;2024-03-23T08:18:26;96472.72;;;9.81
72236;BMP280;60146;52.498;13.462;2024-03-23T08:21:01;96469.38;;;9.71
72236;BMP280;60146;52.498;13.462;2024-03-23T08:23:33;96449.97;;;9.58
72236;BMP280;60146;52.498;13.462;2024-03-23T08:26:02;96483.19;;;9.71
72236;BMP280;60146;52.498;13.462;2024-03-23T08:28:27;96636.53;;;9.47
72236;BMP280;60146;52.498;13.462;2024-03-23T08:30:54;96658.22;;;9.54
72236;BMP280;60146;52.498;13.462;2024-03-23T08:33:19;96575.31;;;9.51
72236;BMP280;60146;52.498;13.462;2024-03-23T08:35:55;96454.44;;;9.57
72236;BMP280;60146;52.498;13.462;2024-03-23T08:38:21;96513.00;;;9.39
72236;BMP280;60146;52.498;13.462;2024-03-23T08:40:47;96645.44;;;9.42
72236;BMP280;60146;52.498;13.462;2024-03-23T08:43:12;96596.53;;;9.32
72236;BMP280;60146;52.498;13.462;2024-03-23T08:45:37;96564.16;;;9.47
72236;BMP280;60146;52.498;13.462;2024-03-23T08:48:03;96645.41;;;9.29
72236;BMP280;60146;52.498;13.462;2024-03-23T08:50:28;96524.47;;;9.11
72236;BMP280;60146;52.498;13.462;2024-03-23T08:52:53;96512.91;;;9.09
72236;BMP280;60146;52.498;13.462;2024-03-23T08:55:19;96609.69;;;8.87
72236;BMP280;60146;52.498;13.462;2024-03-23T08:57:44;96605.59;;;8.79
72236;BMP280;60146;52.498;13.462;2024-03-23T09:00:10;96563.84;;;8.79
72236;BMP280;60146;52.498;13.462;2024-03-23T09:02:37;96503.41;;;8.67
72236;BMP280;60146;52.498;13.462;2024-03-23T09:05:03;96419.91;;;8.60
72236;BMP280;60146;52.498;13.462;2024-03-23T09:07:32;96419.97;;;8.70
72236;BMP280;60146;52.498;13.462;2024-03-23T09:09:58;96645.00;;;8.67
72236;BMP280;60146;52.498;13.462;2024-03-23T09:12:23;96695.50;;;8.49
72236;BMP280;60146;52.498;13.462;2024-03-23T09:14:52;96592.41;;;8.58
72236;BMP280;60146;52.498;13.462;2024-03-23T09:17:18;96590.91;;;8.57
72236;BMP280;60146;52.498;13.462;2024-03-23T09:19:43;96619.94;;;8.52
72236;BMP280;60146;52.498;13.462;2024-03-23T09:22:09;96639.28;;;8.51
72236;BMP280;60146;52.498;13.462;2024-03-23T09:24:34;96657.59;;;8.58
72236;BMP280;60146;52.498;13.462;2024-03-23T09:26:59;96679.19;;;8.55
72236;BMP280;60146;52.498;13.462;2024-03-23T09:29:25;96706.72;;;8.53
72236;BMP280;60146;52.498;13.462;2024-03-23T09:31:50;96732.31;;;8.41
72236;BMP280;60146;52.498;13.462;2024-03-23T09:34:15;96691.00;;;8.43
72236;BMP280;60146;52.498;13.462;2024-03-23T09:36:41;96830.75;;;8.18
72236;BMP280;60146;52.498;13.462;2024-03-23T09:39:07;96958.88;;;8.20
72236;BMP280;60146;52.498;13.462;2024-03-23T09:41:34;96852.63;;;8.10
72236;BMP280;60146;52.498;13.462;2024-03-23T09:44:00;96712.69;;;8.14
72236;BMP280;60146;52.498;13.462;2024-03-23T09:46:26;96665.50;;;8.26
72236;BMP280;60146;52.498;13.462;2024-03-23T09:48:52;96604.75;;;8.19
72236;BMP280;60146;52.498;13.462;2024-03-23T09:51:18;96656.13;;;8.18
72236;BMP280;60146;52.498;13.462;2024-03-23T09:53:44;96671.44;;;8.23
72236;BMP280;60146;52.498;13.462;2024-03-23T09:56:09;96848.94;;;8.15
72236;BMP280;60146;52.498;13.462;2024-03-23T09:58:35;97043.56;;;8.07
72236;BMP280;60146;52.498;13.462;2024-03-23T10:01:01;97154.28;;;7.95
72236;BMP280;60146;52.498;13.462;2024-03-23T10:03:26;97117.84;;;7.98
72236;BMP280;60146;52.498;13.462;2024-03-23T10:06:02;97161.22;;;7.69
72236;BMP280;60146;52.498;13.462;2024-03-23T10:08:28;97084.22;;;7.71
72236;BMP280;60146;52.498;13.462;2024-03-23T10:10:54;97173.88;;;7.70
72236;BMP280;60146;52.498;13.462;2024-03-23T10:13:26;97074.91;;;7.70
72236;BMP280;60146;52.498;13.462;2024-03-23T10:15:59;97138.34;;;7.81
72236;BMP280;60146;52.498;13.462;2024-03-23T10:18:25;97165.81;;;7.75
72236;BMP280;60146;52.498;13.462;2024-03-23T10:23:31;97135.03;;;7.81
72236;BMP280;60146;52.498;13.462;2024-03-23T10:26:12;97115.47;;;7.71
72236;BMP280;60146;52.498;13.462;2024-03-23T10:28:57;97053.13;;;7.60
72236;BMP280;60146;52.498;13.462;2024-03-23T10:31:36;96967.56;;;7.58
72236;BMP280;60146;52.498;13.462;2024-03-23T10:34:03;96959.41;;;7.60
72236;BMP280;60146;52.498;13.462;2024-03-23T10:36:29;96892.91;;;7.66
72236;BMP280;60146;52.498;13.462;2024-03-23T10:38:55;96844.84;;;7.63
72236;BMP280;60146;52.498;13.462;2024-03-23T10:41:26;96760.50;;;7.67
72236;BMP280;60146;52.498;13.462;2024-03-23T10:43:53;96716.88;;;7.90
72236;BMP280;60146;52.498;13.462;2024-03-23T10:46:18;96824.59;;;7.75
72236;BMP280;60146;52.498;13.462;2024-03-23T10:48:45;96761.03;;;7.80
72236;BMP280;60146;52.498;13.462;2024-03-23T10:51:10;96767.72;;;7.81
72236;BMP280;60146;52.498;13.462;2024-03-23T10:53:36;96762.25;;;7.89
72236;BMP280;60146;52.498;13.462;2024-03-23T10:56:05;96722.56;;;7.99
72236;BMP280;60146;52.498;13.462;2024-03-23T10:58:45;96799.31;;;8.05
72236;BMP280;60146;52.498;13.462;2024-03-23T11:01:12;96916.31;;;8.13
72236;BMP280;60146;52.498;13.462;2024-03-23T11:03:38;97284.81;;;7.90
72236;BMP280;60146;52.498;13.462;2024-03-23T11:06:05;97233.94;;;7.96
72236;BMP280;60146;52.498;13.462;2024-03-23T11:08:38;97185.41;;;7.88
72236;BMP280;60146;52.498;13.462;2024-03-23T11:11:24;97177.28;;;7.74
72236;BMP280;60146;52.498;13.462;2024-03-23T11:13:53;97063.56;;;7.82
72236;BMP280;60146;52.498;13.462;2024-03-23T11:16:24;97043.97;;;7.87
72236;BMP280;60146;52.498;13.462;2024-03-23T11:18:50;97116.34;;;7.97
72236;BMP280;60146;52.498;13.462;2024-03-23T11:21:53;97369.19;;;8.01
72236;BMP280;60146;52.498;13.462;2024-03-23T11:24:22;97331.03;;;8.11
72236;BMP280;60146;52.498;13.462;2024-03-23T11:26:48;97334.50;;;8.15
72236;BMP280;60146;52.498;13.462;2024-03-23T11:29:15;97554.91;;;8.13
72236;BMP280;60146;52.498;13.462;2024-03-23T11:31:51;97713.31;;;7.92
72236;BMP280;60146;52.498;13.462;2024-03-23T11:34:17;97722.88;;;8.27
72236;BMP280;60146;52.498;13.462;2024-03-23T11:36:43;97982.56;;;8.28
72236;BMP280;60146;52.498;13.462;2024-03-23T11:39:19;97902.25;;;8.72
72236;BMP280;60146;52.498;13.462;2024-03-23T11:41:56;98232.00;;;8.44
72236;BMP280;60146;52.498;13.462;2024-03-23T11:44:25;98009.25;;;8.72
72236;BMP280;60146;52.498;13.462;2024-03-23T11:46:51;98240.88;;;8.87
72236;BMP280;60146;52.498;13.462;2024-03-23T11:49:26;98286.75;;;8.64
72236;BMP280;60146;52.498;13.462;2024-03-23T11:51:53;98179.56;;;8.92
72236;BMP280;60146;52.498;13.462;2024-03-23T11:54:26;98209.78;;;9.05
72236;BMP280;60146;52.498;13.462;2024-03-23T11:57:03;98178.00;;;9.15
72236;BMP280;60146;52.498;13.462;2024-03-23T11:59:42;98146.69;;;9.27
72236;BMP280;60146;52.498;13.462;2024-03-23T12:02:13;98262.16;;;9.20
72236;BMP280;60146;52.498;13.462;2024-03-23T12:04:40;98280.34;;;9.17
72236;BMP280;60146;52.498;13.462;2024-03-23T12:07:24;98371.25;;;9.35
72236;BMP280;60146;52.498;13.462;2024-03-23T12:10:03;98455.25;;;9.25
72236;BMP280;60146;52.498;13.462;2024-03-23T12:12:29;98278.13;;;8.95
72236;BMP280;60146;52.498;13.462;2024-03-23T12:15:05;98162.81;;;8.93
72236;BMP280;60146;52.498;13.462;2024-03-23T12:17:31;98094.06;;;8.78
72236;BMP280;60146;52.498;13.462;2024-03-23T12:19:57;98003.28;;;8.71
72236;BMP280;60146;52.498;13.462;2024-03-23T12:22:23;97905.25;;;8.86
72236;BMP280;60146;52.498;13.462;2024-03-23T12:24:49;97899.50;;;8.80
72236;BMP280;60146;52.498;13.462;2024-03-23T12:27:15;97796.91;;;8.49
72236;BMP280;60146;52.498;13.462;2024-03-23T12:29:41;97763.78;;;8.65
72236;BMP280;60146;52.498;13.462;2024-03-23T12:32:08;97883.38;;;8.90
72236;BMP280;60146;52.498;13.462;2024-03-23T12:34:33;98148.97;;;9.05
72236;BMP280;60146;52.498;13.462;2024-03-23T12:36:58;97912.72;;;9.14
72236;BMP280;60146;52.498;13.462;2024-03-23T12:39:24;97825.66;;;9.22
72236;BMP280;60146;52.498;13.462;2024-03-23T12:41:49;97851.81;;;9.25
72236;BMP280;60146;52.498;13.462;2024-03-23T12:44:15;97742.38;;;9.35
72236;BMP280;60146;52.498;13.462;2024-03-23T12:46:44;97772.97;;;9.35
72236;BMP280;60146;52.498;13.462;2024-03-23T12:49:10;97707.41;;;9.25
72236;BMP280;60146;52.498;13.462;2024-03-23T12:51:35;97706.19;;;9.19
72236;BMP280;60146;52.498;13.462;2024-03-23T12:54:00;97643.97;;;9.39
72236;BMP280;60146;52.498;13.462;2024-03-23T12:56:26;97597.72;;;9.25
72236;BMP280;60146;52.498;13.462;2024-03-23T12:58:53;97720.41;;;9.36
72236;BMP280;60146;52.498;13.462;2024-03-23T13:01:20;97999.59;;;9.53
72236;BMP280;60146;52.498;13.462;2024-03-23T13:03:46;98099.22;;;9.63
72236;BMP280;60146;52.498;13.462;2024-03-23T13:06:12;98388.34;;;9.44
72236;BMP280;60146;52.498;13.462;2024-03-23T13:08:37;98356.59;;;9.54
72236;BMP280;60146;52.498;13.462;2024-03-23T13:11:03;98480.19;;;9.66
72236;BMP280;60146;52.498;13.462;2024-03-23T13:13:29;98592.19;;;9.44
72236;BMP280;60146;52.498;13.462;2024-03-23T13:15:56;98477.91;;;9.65
72236;BMP280;60146;52.498;13.462;2024-03-23T13:18:22;98332.00;;;9.82
72236;BMP280;60146;52.498;13.462;2024-03-23T13:20:47;98381.88;;;10.24
72236;BMP280;60146;52.498;13.462;2024-03-23T13:23:12;98165.00;;;9.92
72236;BMP280;60146;52.498;13.462;2024-03-23T13:25:38;98196.69;;;10.17
72236;BMP280;60146;52.498;13.462;2024-03-23T13:28:03;98419.16;;;11.13
72236;BMP280;60146;52.498;13.462;2024-03-23T13:30:30;98999.00;;;12.44
72236;BMP280;60146;52.498;13.462;2024-03-23T13:32:55;99225.44;;;13.81
72236;BMP280;60146;52.498;13.462;2024-03-23T13:35:21;99552.38;;;15.76
72236;BMP280;60146;52.498;13.462;2024-03-23T13:37:47;99918.22;;;17.46
72236;BMP280;60146;52.498;13.462;2024-03-23T13:40:13;99978.03;;;17.81
72236;BMP280;60146;52.498;13.462;2024-03-23T13:42:38;100022.06;;;18.71
72236;BMP280;60146;52.498;13.462;2024-03-23T13:45:04;100035.84;;;17.15
72236;BMP280;60146;52.498;13.462;2024-03-23T13:47:29;100057.19;;;18.83
72236;BMP280;60146;52.498;13.462;2024-03-23T13:49:54;100074.75;;;18.69
72236;BMP280;60146;52.498;13.462;2024-03-23T13:52:21;100072.50;;;19.30
72236;BMP280;60146;52.498;13.462;2024-03-23T13:54:48;100074.44;;;18.92
72236;BMP280;60146;52.498;13.462;2024-03-23T13:57:13;100093.88;;;19.58
72236;BMP280;60146;52.498;13.462;2024-03-23T13:59:39;100083.66;;;19.16
72236;BMP280;60146;52.498;13.462;2024-03-23T14:02:04;100072.63;;;19.58
72236;BMP280;60146;52.498;13.462;2024-03-23T14:04:29;100078.13;;;19.47
72236;BMP280;60146;52.498;13.462;2024-03-23T14:06:55;100088.13;;;17.60
72236;BMP280;60146;52.498;13.462;2024-03-23T14:09:20;100086.66;;;17.77
72236;BMP280;60146;52.498;13.462;2024-03-23T14:11:48;100087.44;;;17.47
72236;BMP280;60146;52.498;13.462;2024-03-23T14:14:14;100089.63;;;17.30
72236;BMP280;60146;52.498;13.462;2024-03-23T14:16:43;100081.50;;;16.70
72236;BMP280;60146;52.498;13.462;2024-03-23T14:19:08;100074.94;;;16.17
72236;BMP280;60146;52.498;13.462;2024-03-23T14:21:34;100071.00;;;16.23
72236;BMP280;60146;52.498;13.462;2024-03-23T14:24:02;100064.81;;;15.29
72236;BMP280;60146;52.498;13.462;2024-03-23T14:26:28;100049.06;;;14.41
72236;BMP280;60146;52.498;13.462;2024-03-23T14:28:53;99948.31;;;13.06
72236;BMP280;60146;52.498;13.462;2024-03-23T14:31:18;99867.25;;;12.99
72236;BMP280;60146;52.498;13.462;2024-03-23T14:33:44;99776.06;;;12.14
72236;BMP280;60146;52.498;13.462;2024-03-23T14:36:16;99609.88;;;11.97
72236;BMP280;60146;52.498;13.462;2024-03-23T14:38:42;99493.84;;;12.11
72236;BMP280;60146;52.498;13.462;2024-03-23T14:41:08;99456.03;;;12.04
72236;BMP280;60146;52.498;13.462;2024-03-23T14:43:33;99460.47;;;11.83
72236;BMP280;60146;52.498;13.462;2024-03-23T14:46:15;99515.59;;;11.83
72236;BMP280;60146;52.498;13.462;2024-03-23T14:48:44;99496.69;;;11.61
72236;BMP280;60146;52.498;13.462;2024-03-23T14:51:10;99508.00;;;11.37
72236;BMP280;60146;52.498;13.462;2024-03-23T14:53:37;99580.16;;;10.93
72236;BMP280;60146;52.498;13.462;2024-03-23T14:56:06;99603.53;;;10.65
72236;BMP280;60146;52.498;13.462;2024-03-23T14:58:31;99481.91;;;10.33
72236;BMP280;60146;52.498;13.462;2024-03-23T15:01:15;98990.41;;;9.93